Decoded Metar for KFZY (FULTON in NY, USA) (IATA:FZY) | Meteo·Mobile Aviation Weather
aviador You're here:

KFZY Decoded Metar

FULTON in NY, USA
Report Time2019-10-22 12:54:00
UTC Time2019-10-22 13:31:07
Flight Rules mvfr MVFR
Wind130° at 06 kt
W.Decomp.*RWY 15: 6.0 kt HW 0.7 kt LCW
RWY 06: 0.7 kt HW 6.0 kt RCW
Visibility9999 m
Phenomena:N/A
Clouds:Overcast 028 Hf
Expected CloudBase > 2,400 ft AGL from Temp-Dew spread
Ceiling2,800 ft
Temp13°C (ISA -1)
Dew Point07°C (67% RH)
AAT10.1°C
QNH1012 hPa
Density Alt495 ft
Elevation453 ft
Report Wrong Elevation
Raw Report
KFZY 221254Z AUTO 13006KT 10SM OVC028 13/07 A2989 RMK AO2 SLP120
T01330072=

Extra information for KFZY:More info

Metar Taf Metar & Taf Last 4 Metars F.Rules Stats Wind Profile Meteogram Temp Stats Airport Information Weather charts Add Link Nearby VenuesMetar ALERT Operation Metar Decoded Social comments

AIRNAV info for KFZY